createdAt,value
2023-05-04T00:00:25.000Z,0
2023-05-04T00:01:41.938Z,0
2023-05-04T00:02:58.118Z,0
2023-05-04T00:04:13.000Z,0
2023-05-04T00:05:29.515Z,0
2023-05-04T00:06:45.728Z,0
2023-05-04T00:08:01.000Z,0
2023-05-04T00:09:00.114Z,0
2023-05-04T00:10:34.295Z,0
2023-05-04T00:11:32.500Z,0
2023-05-04T00:13:06.691Z,0
2023-05-04T00:14:04.887Z,0
2023-05-04T00:15:39.080Z,0
2023-05-04T00:16:55.273Z,0
2023-05-04T00:18:11.451Z,0
2023-05-04T00:19:09.659Z,0
2023-05-04T00:20:43.969Z,0
2023-05-04T00:22:00.152Z,0
2023-05-04T00:23:16.359Z,0
2023-05-04T00:24:14.552Z,0
2023-05-04T00:25:48.745Z,0
2023-05-04T00:26:46.939Z,0
2023-05-04T00:28:03.132Z,0
2023-05-04T00:29:37.325Z,0
2023-05-04T00:30:53.000Z,0
2023-05-04T00:31:51.711Z,0
2023-05-04T00:33:25.901Z,0
2023-05-04T00:34:24.097Z,0
2023-05-04T00:35:40.291Z,0
2023-05-04T00:36:55.497Z,0
2023-05-04T00:38:29.000Z,0
2023-05-04T00:39:27.884Z,0
2023-05-04T00:40:44.077Z,0
2023-05-04T00:42:18.000Z,0
2023-05-04T00:43:34.452Z,0
2023-05-04T00:44:32.656Z,0
2023-05-04T00:46:06.000Z,0
2023-05-04T00:47:05.042Z,0
2023-05-04T00:48:21.235Z,0
2023-05-04T00:49:37.428Z,0
2023-05-04T00:50:53.621Z,0
2023-05-04T00:52:09.814Z,0
2023-05-04T00:53:43.000Z,0
2023-05-04T00:54:59.216Z,0
2023-05-04T00:56:15.394Z,0
2023-05-04T00:57:31.585Z,0
2023-05-04T00:58:29.796Z,0
2023-05-04T00:59:45.989Z,0
2023-05-04T01:01:20.000Z,0
2023-05-04T01:02:18.375Z,0
2023-05-04T01:03:52.000Z,0
2023-05-04T01:05:08.741Z,0
2023-05-04T01:06:24.942Z,0
2023-05-04T01:07:41.000Z,0
2023-05-04T01:09:23.000Z,0
2023-05-04T01:10:13.516Z,0
2023-05-04T01:11:28.725Z,0
2023-05-04T01:12:26.937Z,0
2023-05-04T01:14:01.112Z,0
2023-05-04T01:15:17.310Z,0
2023-05-04T01:16:33.515Z,0
2023-05-04T01:17:49.693Z,0
2023-05-04T01:19:05.897Z,0
2023-05-04T01:20:22.095Z,0
2023-05-04T01:21:38.281Z,0
2023-05-04T01:22:36.481Z,0
2023-05-04T01:24:10.000Z,0
2023-05-04T01:25:08.867Z,0
2023-05-04T01:26:43.052Z,0
2023-05-04T01:27:40.269Z,0
2023-05-04T01:29:14.458Z,0
2023-05-04T01:30:12.655Z,0
2023-05-04T01:31:46.849Z,0
2023-05-04T01:34:19.000Z,0
2023-05-04T01:35:35.426Z,0
2023-05-04T01:36:51.616Z,0
2023-05-04T01:38:07.812Z,0
2023-05-04T01:39:24.006Z,0
2023-05-04T01:40:40.187Z,0
2023-05-04T01:41:56.000Z,0
2023-05-04T01:42:54.586Z,0
2023-05-04T01:44:28.760Z,0
2023-05-04T01:45:43.988Z,0
2023-05-04T01:47:00.181Z,0
2023-05-04T01:47:58.374Z,0
2023-05-04T01:49:14.566Z,0
2023-05-04T01:50:48.759Z,0
2023-05-04T01:52:04.934Z,0
2023-05-04T01:53:03.145Z,0
2023-05-04T01:54:37.000Z,0
2023-05-04T01:55:53.525Z,0
2023-05-04T01:57:09.722Z,0
2023-05-04T01:58:25.917Z,0
2023-05-04T01:59:42.092Z,0
2023-05-04T02:00:40.303Z,0
2023-05-04T02:02:14.496Z,0
2023-05-04T02:03:12.689Z,0
2023-05-04T02:04:27.898Z,0
2023-05-04T02:06:02.088Z,0
2023-05-04T02:07:18.267Z,0
2023-05-04T02:08:16.477Z,0
2023-05-04T02:09:50.654Z,0
2023-05-04T02:11:06.000Z,0
2023-05-04T02:12:23.043Z,0
2023-05-04T02:13:21.249Z,0
2023-05-04T02:14:55.000Z,0
2023-05-04T02:15:53.636Z,0
2023-05-04T02:17:27.809Z,0
2023-05-04T02:18:26.022Z,0
2023-05-04T02:20:00.207Z,0
2023-05-04T02:20:57.423Z,0
2023-05-04T02:22:31.603Z,0
2023-05-04T02:23:47.811Z,0
2023-05-04T02:25:04.000Z,0
2023-05-04T02:26:02.196Z,0
2023-05-04T02:27:36.380Z,0
2023-05-04T02:28:34.582Z,0
2023-05-04T02:30:08.000Z,0
2023-05-04T02:31:06.968Z,0
2023-05-04T02:32:41.000Z,0
2023-05-04T02:33:39.354Z,0
2023-05-04T02:35:13.000Z,0
2023-05-04T02:36:29.740Z,0
2023-05-04T02:37:45.000Z,0
2023-05-04T02:39:02.000Z,0
2023-05-04T02:40:18.319Z,0
2023-05-04T02:41:34.000Z,0
2023-05-04T02:43:17.000Z,0
2023-05-04T02:43:48.898Z,0
2023-05-04T02:45:49.000Z,0
2023-05-04T02:46:21.284Z,0
2023-05-04T02:47:55.000Z,0
2023-05-04T02:49:11.000Z,0
2023-05-04T02:50:27.529Z,0
2023-05-04T02:51:42.725Z,4
2023-05-04T02:52:58.926Z,4
2023-05-04T02:53:57.458Z,0
2023-05-04T02:55:31.651Z,0
2023-05-04T02:56:47.509Z,4
2023-05-04T02:58:03.701Z,0
2023-05-04T02:59:02.231Z,4
2023-05-04T03:00:36.000Z,4
2023-05-04T03:01:52.617Z,4
2023-05-04T03:03:08.809Z,4
2023-05-04T03:04:24.669Z,8
2023-05-04T03:05:41.196Z,8
2023-05-04T03:06:39.389Z,12
2023-05-04T03:08:13.000Z,12
2023-05-04T03:09:11.897Z,12
2023-05-04T03:10:46.090Z,16
2023-05-04T03:12:01.933Z,20
2023-05-04T03:13:00.476Z,20
2023-05-04T03:14:34.669Z,24
2023-05-04T03:15:50.528Z,32
2023-05-04T03:16:49.055Z,36
2023-05-04T03:18:23.000Z,40
2023-05-04T03:19:39.000Z,52
2023-05-04T03:20:55.300Z,60
2023-05-04T03:22:11.478Z,68
2023-05-04T03:23:27.672Z,80
2023-05-04T03:25:09.000Z,88
2023-05-04T03:25:59.000Z,100
2023-05-04T03:27:15.000Z,116
2023-05-04T03:28:31.456Z,132
2023-05-04T03:29:48.000Z,152
2023-05-04T03:30:46.193Z,168
2023-05-04T03:32:19.057Z,188
2023-05-04T03:33:35.000Z,212
2023-05-04T03:34:33.793Z,236
2023-05-04T03:36:07.642Z,260
2023-05-04T03:37:06.179Z,284
2023-05-04T03:38:40.039Z,316
2023-05-04T03:39:56.000Z,348
2023-05-04T03:41:12.413Z,380
2023-05-04T03:42:28.000Z,412
2023-05-04T03:43:44.794Z,444
2023-05-04T03:44:43.337Z,484
2023-05-04T03:46:17.185Z,520
2023-05-04T03:47:33.373Z,560
2023-05-04T03:48:48.000Z,600
2023-05-04T03:49:47.124Z,644
2023-05-04T03:51:21.000Z,684
2023-05-04T03:52:37.000Z,728
2023-05-04T03:53:53.000Z,772
2023-05-04T03:55:09.558Z,824
2023-05-04T03:56:25.755Z,868
2023-05-04T03:57:41.945Z,916
2023-05-04T03:58:58.000Z,964
2023-05-04T04:00:14.330Z,1016
2023-05-04T04:01:30.000Z,1068
2023-05-04T04:02:47.054Z,1116
2023-05-04T04:04:03.000Z,1200
2023-05-04T04:05:19.000Z,1228
2023-05-04T04:06:35.000Z,1264
2023-05-04T04:07:33.826Z,1316
2023-05-04T04:09:08.000Z,1368
2023-05-04T04:10:06.212Z,1420
2023-05-04T04:11:39.079Z,1472
2023-05-04T04:12:55.263Z,1520
2023-05-04T04:14:11.461Z,1572
2023-05-04T04:15:54.000Z,1624
2023-05-04T04:16:26.193Z,1672
2023-05-04T04:18:00.386Z,1724
2023-05-04T04:19:16.000Z,1772
2023-05-04T04:20:32.436Z,1828
2023-05-04T04:21:48.626Z,1876
2023-05-04T04:22:47.157Z,1924
2023-05-04T04:24:21.017Z,1976
2023-05-04T04:25:37.202Z,2024
2023-05-04T04:26:53.000Z,2068
2023-05-04T04:27:51.929Z,2112
2023-05-04T04:29:25.000Z,2160
2023-05-04T04:30:41.331Z,2204
2023-05-04T04:31:57.000Z,2248
2023-05-04T04:33:40.000Z,2292
2023-05-04T04:34:29.000Z,2332
2023-05-04T04:35:28.103Z,2380
2023-05-04T04:37:01.948Z,2412
2023-05-04T04:38:18.156Z,2464
2023-05-04T04:39:34.000Z,2504
2023-05-04T04:40:50.527Z,2552
2023-05-04T04:42:07.000Z,2592
2023-05-04T04:43:23.262Z,2632
2023-05-04T04:44:21.454Z,2676
2023-05-04T04:45:37.648Z,2720
2023-05-04T04:47:10.000Z,2752
2023-05-04T04:48:09.051Z,2788
2023-05-04T04:49:43.000Z,2824
2023-05-04T04:50:59.000Z,2856
2023-05-04T04:51:57.630Z,2776
2023-05-04T04:53:13.823Z,2932
2023-05-04T04:54:48.000Z,2968
2023-05-04T04:56:04.000Z,3008
2023-05-04T04:57:20.000Z,3044
2023-05-04T04:58:36.588Z,3080
2023-05-04T04:59:52.788Z,3084
2023-05-04T05:01:08.965Z,3160
2023-05-04T05:02:25.174Z,3184
2023-05-04T05:03:41.355Z,3228
2023-05-04T05:04:56.000Z,3264
2023-05-04T05:06:12.769Z,3296
2023-05-04T05:07:28.959Z,3320
2023-05-04T05:08:45.156Z,3348
2023-05-04T05:10:01.000Z,3376
2023-05-04T05:11:17.537Z,3400
2023-05-04T05:12:33.000Z,3424
2023-05-04T05:13:31.930Z,3452
2023-05-04T05:15:06.122Z,3480
2023-05-04T05:16:04.316Z,3508
2023-05-04T05:17:20.509Z,3536
2023-05-04T05:19:21.000Z,3564
2023-05-04T05:20:10.885Z,3592
2023-05-04T05:21:26.000Z,3620
2023-05-04T05:22:42.289Z,3644
2023-05-04T05:23:40.492Z,3668
2023-05-04T05:25:14.000Z,3688
2023-05-04T05:26:30.863Z,3712
2023-05-04T05:27:47.000Z,3732
2023-05-04T05:28:45.264Z,3752
2023-05-04T05:30:19.458Z,3772
2023-05-04T05:31:35.645Z,3788
2023-05-04T05:32:33.844Z,3812
2023-05-04T05:34:08.000Z,3836
2023-05-04T05:35:24.214Z,3852
2023-05-04T05:36:22.424Z,3872
2023-05-04T05:37:55.627Z,3888
2023-05-04T05:39:11.812Z,3904
2023-05-04T05:40:28.000Z,3924
2023-05-04T05:41:44.208Z,3944
2023-05-04T05:43:00.000Z,3960
2023-05-04T05:43:58.600Z,3976
2023-05-04T05:45:32.794Z,3996
2023-05-04T05:46:48.000Z,4004
2023-05-04T05:48:05.173Z,4028
2023-05-04T05:49:21.000Z,4052
2023-05-04T05:50:37.000Z,4068
2023-05-04T05:51:35.760Z,4092
2023-05-04T05:53:09.955Z,4108
2023-05-04T05:54:07.163Z,4128
2023-05-04T05:55:41.359Z,4148
2023-05-04T05:56:39.550Z,4168
2023-05-04T05:58:13.728Z,4192
2023-05-04T05:59:29.000Z,4212
2023-05-04T06:00:46.000Z,4232
2023-05-04T06:02:02.000Z,4252
2023-05-04T06:03:18.000Z,4268
2023-05-04T06:04:34.693Z,4288
2023-05-04T06:05:50.000Z,4304
2023-05-04T06:06:49.096Z,4328
2023-05-04T06:08:23.292Z,4344
2023-05-04T06:09:21.482Z,4360
2023-05-04T06:10:55.000Z,4368
2023-05-04T06:12:11.000Z,4312
2023-05-04T06:13:28.000Z,4296
2023-05-04T06:14:26.376Z,4360
2023-05-04T06:16:00.560Z,4468
2023-05-04T06:17:16.761Z,4480
2023-05-04T06:18:32.958Z,4492
2023-05-04T06:19:49.000Z,4504
2023-05-04T06:21:05.342Z,4524
2023-05-04T06:22:21.521Z,4540
2023-05-04T06:23:37.713Z,4544
2023-05-04T06:24:53.000Z,4560
2023-05-04T06:25:52.114Z,4568
2023-05-04T06:27:08.307Z,4560
2023-05-04T06:28:41.000Z,4608
2023-05-04T06:29:39.710Z,4628
2023-05-04T06:31:13.904Z,4644
2023-05-04T06:32:30.083Z,4656
2023-05-04T06:34:12.000Z,4676
2023-05-04T06:35:02.469Z,4688
2023-05-04T06:36:18.675Z,4700
2023-05-04T06:37:34.000Z,4712
2023-05-04T06:38:51.060Z,4728
2023-05-04T06:39:49.253Z,4736
2023-05-04T06:41:23.438Z,4744
2023-05-04T06:42:21.639Z,4756
2023-05-04T06:43:55.000Z,4760
2023-05-04T06:44:54.025Z,4620
2023-05-04T06:46:28.206Z,4792
2023-05-04T06:47:26.411Z,4796
2023-05-04T06:49:00.600Z,4800
2023-05-04T06:50:16.000Z,4812
2023-05-04T06:51:33.000Z,4816
2023-05-04T06:52:31.183Z,4848
2023-05-04T06:54:05.486Z,4864
2023-05-04T06:55:03.690Z,4876
2023-05-04T06:56:37.869Z,4984
2023-05-04T06:57:54.000Z,4912
2023-05-04T06:59:10.000Z,4924
2023-05-04T07:00:26.000Z,4936
2023-05-04T07:01:42.649Z,4952
2023-05-04T07:02:58.000Z,4964
2023-05-04T07:04:15.000Z,4988
2023-05-04T07:05:31.000Z,5000
2023-05-04T07:06:47.000Z,5016
2023-05-04T07:08:03.000Z,5032
2023-05-04T07:09:19.800Z,5044
2023-05-04T07:10:18.007Z,5056
2023-05-04T07:11:52.202Z,5076
2023-05-04T07:12:49.412Z,5092
2023-05-04T07:14:23.593Z,5108
2023-05-04T07:15:39.000Z,5120
2023-05-04T07:16:55.981Z,5132
2023-05-04T07:17:54.187Z,5140
2023-05-04T07:19:28.383Z,5160
2023-05-04T07:20:26.577Z,5168
2023-05-04T07:22:00.772Z,5180
2023-05-04T07:22:58.966Z,5164
2023-05-04T07:24:33.000Z,5196
2023-05-04T07:25:31.355Z,5184
2023-05-04T07:27:05.000Z,5212
2023-05-04T07:28:21.000Z,5240
2023-05-04T07:29:37.939Z,5252
2023-05-04T07:30:36.134Z,5236
2023-05-04T07:32:09.000Z,5280
2023-05-04T07:33:07.539Z,5316
2023-05-04T07:34:41.724Z,5328
2023-05-04T07:35:39.929Z,5332
2023-05-04T07:37:14.108Z,5332
2023-05-04T07:38:12.319Z,5340
2023-05-04T07:39:46.504Z,5304
2023-05-04T07:41:02.000Z,5376
2023-05-04T07:42:18.000Z,5348
2023-05-04T07:43:35.084Z,5372
2023-05-04T07:44:51.296Z,5420
2023-05-04T07:46:34.000Z,5440
2023-05-04T07:47:22.000Z,5496
2023-05-04T07:48:38.902Z,5428
2023-05-04T07:49:55.093Z,5472
2023-05-04T07:51:11.293Z,5512
2023-05-04T07:52:27.487Z,5528
2023-05-04T07:53:43.000Z,5540
2023-05-04T07:54:59.863Z,5552
2023-05-04T07:56:16.056Z,5568
2023-05-04T07:57:32.251Z,5536
2023-05-04T07:58:30.463Z,5608
2023-05-04T08:00:04.000Z,5612
2023-05-04T08:01:20.853Z,5616
2023-05-04T08:02:37.000Z,5576
2023-05-04T08:03:35.244Z,5636
2023-05-04T08:05:08.446Z,5652
2023-05-04T08:06:24.000Z,5684
2023-05-04T08:07:40.846Z,5548
2023-05-04T08:08:57.035Z,5600
2023-05-04T08:10:13.224Z,5544
2023-05-04T08:11:11.432Z,5516
2023-05-04T08:12:45.611Z,5488
2023-05-04T08:13:43.822Z,5924
2023-05-04T08:15:18.018Z,5668
2023-05-04T08:16:16.213Z,5528
2023-05-04T08:17:50.397Z,5592
2023-05-04T08:19:06.604Z,5480
2023-05-04T08:20:49.000Z,5540
2023-05-04T08:21:39.000Z,5636
2023-05-04T08:22:55.190Z,5636
2023-05-04T08:24:11.373Z,5664
2023-05-04T08:25:27.000Z,5672
2023-05-04T08:26:25.898Z,5556
2023-05-04T08:27:59.108Z,5412
2023-05-04T08:28:57.303Z,5612
2023-05-04T08:30:31.000Z,5648
2023-05-04T08:31:47.000Z,5608
2023-05-04T08:33:03.000Z,5760
2023-05-04T08:34:20.000Z,5784
2023-05-04T08:35:36.000Z,5780
2023-05-04T08:36:34.475Z,5772
2023-05-04T08:38:08.000Z,5928
2023-05-04T08:39:06.866Z,6636
2023-05-04T08:40:41.058Z,6012
2023-05-04T08:41:39.256Z,5824
2023-05-04T08:43:13.434Z,5856
2023-05-04T08:44:29.000Z,6060
2023-05-04T08:45:45.842Z,5976
2023-05-04T08:47:02.000Z,6012
2023-05-04T08:48:18.224Z,5868
2023-05-04T08:49:16.426Z,6504
2023-05-04T08:50:50.605Z,6056
2023-05-04T08:51:47.832Z,5892
2023-05-04T08:53:22.000Z,6620
2023-05-04T08:54:20.222Z,6152
2023-05-04T08:55:54.000Z,6180
2023-05-04T08:57:10.000Z,6160
2023-05-04T08:58:26.791Z,6028
2023-05-04T08:59:42.996Z,6144
2023-05-04T09:00:59.000Z,6156
2023-05-04T09:02:15.000Z,5844
2023-05-04T09:03:31.579Z,5748
2023-05-04T09:04:29.782Z,5988
2023-05-04T09:06:03.000Z,6144
2023-05-04T09:07:02.172Z,6068
2023-05-04T09:08:36.000Z,6052
2023-05-04T09:09:52.000Z,5680
2023-05-04T09:11:08.000Z,7164
2023-05-04T09:12:25.058Z,6388
2023-05-04T09:13:41.263Z,6284
2023-05-04T09:14:57.000Z,6348
2023-05-04T09:16:13.642Z,6328
2023-05-04T09:17:29.835Z,6324
2023-05-04T09:18:46.044Z,6256
2023-05-04T09:19:44.242Z,5964
2023-05-04T09:21:18.421Z,6264
2023-05-04T09:22:34.632Z,6528
2023-05-04T09:23:50.826Z,6460
2023-05-04T09:24:49.143Z,6528
2023-05-04T09:26:23.321Z,6720
2023-05-04T09:27:39.531Z,7156
2023-05-04T09:28:55.721Z,6760
2023-05-04T09:29:53.922Z,6780
2023-05-04T09:31:28.000Z,6768
2023-05-04T09:32:26.311Z,6828
2023-05-04T09:34:00.000Z,6788
2023-05-04T09:35:16.000Z,6756
2023-05-04T09:36:32.889Z,6800
2023-05-04T09:37:49.077Z,6764
2023-05-04T09:39:05.000Z,6800
2023-05-04T09:40:03.479Z,6752
2023-05-04T09:41:36.681Z,7412
2023-05-04T09:42:52.868Z,6916
2023-05-04T09:44:09.000Z,6760
2023-05-04T09:45:07.276Z,7016
2023-05-04T09:46:41.000Z,6828
2023-05-04T09:47:57.667Z,6860
2023-05-04T09:49:13.846Z,6836
2023-05-04T09:50:30.046Z,6884
2023-05-04T09:51:46.237Z,6656
2023-05-04T09:53:02.445Z,6548
2023-05-04T09:54:18.000Z,6528
2023-05-04T09:55:34.000Z,6644
2023-05-04T09:56:51.034Z,6896
2023-05-04T09:58:06.229Z,7076
2023-05-04T09:59:22.434Z,6956
2023-05-04T10:00:38.000Z,6940
2023-05-04T10:01:54.000Z,6980
2023-05-04T10:03:11.018Z,7020
2023-05-04T10:04:27.219Z,6992
2023-05-04T10:05:43.000Z,6928
2023-05-04T10:06:59.608Z,6872
2023-05-04T10:07:57.806Z,7140
2023-05-04T10:09:32.000Z,6932
2023-05-04T10:10:48.192Z,7152
2023-05-04T10:12:04.379Z,7248
2023-05-04T10:13:20.000Z,7536
2023-05-04T10:14:36.000Z,7220
2023-05-04T10:15:33.995Z,7512
2023-05-04T10:17:08.175Z,7204
2023-05-04T10:18:24.370Z,7136
2023-05-04T10:19:40.569Z,7020
2023-05-04T10:20:38.777Z,7180
2023-05-04T10:22:12.000Z,7100
2023-05-04T10:23:11.168Z,7168
2023-05-04T10:25:11.000Z,7196
2023-05-04T10:26:01.558Z,7668
2023-05-04T10:27:17.749Z,7056
2023-05-04T10:28:33.935Z,6936
2023-05-04T10:29:50.140Z,7208
2023-05-04T10:30:48.340Z,7220
2023-05-04T10:32:22.000Z,7276
2023-05-04T10:33:38.713Z,7244
2023-05-04T10:34:55.039Z,7352
2023-05-04T10:36:11.230Z,7240
2023-05-04T10:37:27.422Z,7268
2023-05-04T10:38:43.000Z,7192
2023-05-04T10:39:59.828Z,7112
2023-05-04T10:41:16.022Z,7048
2023-05-04T10:42:32.207Z,7428
2023-05-04T10:43:30.415Z,7360
2023-05-04T10:45:04.595Z,7484
2023-05-04T10:46:02.806Z,7420
2023-05-04T10:47:37.000Z,7684
2023-05-04T10:48:35.197Z,7724
2023-05-04T10:50:09.384Z,7488
2023-05-04T10:51:25.000Z,7492
2023-05-04T10:52:41.773Z,7472
2023-05-04T10:53:56.985Z,7440
2023-05-04T10:55:13.000Z,7276
2023-05-04T10:56:29.371Z,7348
2023-05-04T10:57:45.579Z,7412
2023-05-04T10:58:43.776Z,7400
2023-05-04T11:00:17.000Z,7288
2023-05-04T11:01:34.000Z,7384
2023-05-04T11:02:50.000Z,7204
2023-05-04T11:04:06.000Z,7260
2023-05-04T11:05:22.736Z,7288
2023-05-04T11:06:38.947Z,7192
2023-05-04T11:07:55.000Z,7140
2023-05-04T11:08:53.340Z,7232
2023-05-04T11:10:26.552Z,7312
2023-05-04T11:11:24.747Z,7328
2023-05-04T11:12:58.931Z,7560
2023-05-04T11:13:57.138Z,7428
2023-05-04T11:15:31.000Z,7588
2023-05-04T11:16:47.529Z,7792
2023-05-04T11:18:03.000Z,7848
2023-05-04T11:19:19.000Z,7644
2023-05-04T11:20:36.000Z,7724
2023-05-04T11:21:34.311Z,7664
2023-05-04T11:23:08.506Z,7764
2023-05-04T11:24:24.702Z,7940
2023-05-04T11:25:40.889Z,8188
2023-05-04T11:26:56.101Z,8328
2023-05-04T11:28:12.295Z,8560
2023-05-04T11:29:28.000Z,8484
2023-05-04T11:30:44.691Z,8816
2023-05-04T11:31:42.891Z,8724
2023-05-04T11:33:17.087Z,8916
2023-05-04T11:34:15.282Z,8812
2023-05-04T11:35:49.000Z,8816
2023-05-04T11:36:47.673Z,8800
2023-05-04T11:38:21.870Z,8804
2023-05-04T11:39:38.049Z,8936
2023-05-04T11:40:54.000Z,9000
2023-05-04T11:42:10.000Z,8900
2023-05-04T11:43:26.650Z,8824
2023-05-04T11:44:42.000Z,8864
2023-05-04T11:45:59.000Z,8980
2023-05-04T11:46:57.237Z,8960
2023-05-04T11:48:31.000Z,8976
2023-05-04T11:49:47.000Z,9036
2023-05-04T11:51:03.000Z,9092
2023-05-04T11:52:02.017Z,9132
2023-05-04T11:53:36.000Z,9336
2023-05-04T11:54:52.000Z,9452
2023-05-04T11:56:08.000Z,9504
2023-05-04T11:57:24.782Z,9672
2023-05-04T11:58:40.993Z,9940
2023-05-04T11:59:57.175Z,10120
2023-05-04T12:01:12.000Z,10280
2023-05-04T12:02:10.595Z,10300
2023-05-04T12:03:43.000Z,10544
2023-05-04T12:04:42.007Z,10264
2023-05-04T12:06:16.000Z,10120
2023-05-04T12:07:32.000Z,9536
2023-05-04T12:09:15.000Z,9472
2023-05-04T12:09:46.788Z,9036
2023-05-04T12:11:20.984Z,8960
2023-05-04T12:12:37.165Z,9068
2023-05-04T12:13:53.372Z,9016
2023-05-04T12:14:51.567Z,9352
2023-05-04T12:17:23.957Z,9100
2023-05-04T12:20:14.347Z,8944
2023-05-04T12:22:46.000Z,8784
2023-05-04T12:24:02.932Z,8780
2023-05-04T12:25:19.113Z,8600
2023-05-04T12:26:34.348Z,8620
2023-05-04T12:27:32.543Z,8844
2023-05-04T12:29:05.756Z,8628
2023-05-04T12:30:21.932Z,8716
2023-05-04T12:31:38.145Z,8564
2023-05-04T12:32:54.339Z,8440
2023-05-04T12:34:10.000Z,8428
2023-05-04T12:35:26.719Z,8724
2023-05-04T12:36:42.000Z,8772
2023-05-04T12:37:41.120Z,8744
2023-05-04T12:39:15.301Z,8688
2023-05-04T12:40:13.510Z,8532
2023-05-04T12:41:47.000Z,8568
2023-05-04T12:42:45.899Z,8288
2023-05-04T12:44:20.079Z,8444
2023-05-04T12:45:35.316Z,8428
2023-05-04T12:46:51.000Z,8488
2023-05-04T12:48:07.688Z,8416
2023-05-04T12:49:23.000Z,8740
2023-05-04T12:50:22.096Z,8752
2023-05-04T12:51:55.315Z,8692
2023-05-04T12:53:10.000Z,8848
2023-05-04T12:54:26.000Z,8880
2023-05-04T12:55:24.918Z,8728
2023-05-04T12:56:59.000Z,8772
2023-05-04T12:58:15.000Z,8600
2023-05-04T12:59:31.487Z,8592
2023-05-04T13:00:47.000Z,8540
2023-05-04T13:02:03.873Z,8572
2023-05-04T13:03:02.086Z,8552
2023-05-04T13:04:36.000Z,8520
2023-05-04T13:05:52.000Z,8564
2023-05-04T13:07:08.000Z,8560
2023-05-04T13:08:06.864Z,8572
2023-05-04T13:09:40.076Z,8668
2023-05-04T13:10:56.271Z,8736
2023-05-04T13:12:12.457Z,8664
2023-05-04T13:13:28.000Z,8432
2023-05-04T13:14:44.844Z,8364
2023-05-04T13:16:01.044Z,8192
2023-05-04T13:17:17.225Z,8252
2023-05-04T13:18:32.462Z,8504
2023-05-04T13:19:47.673Z,8520
2023-05-04T13:21:02.895Z,8680
2023-05-04T13:22:19.000Z,9072
2023-05-04T13:23:35.000Z,9576
2023-05-04T13:24:51.471Z,9708
2023-05-04T13:26:06.000Z,9964
2023-05-04T13:27:22.898Z,10016
2023-05-04T13:28:39.090Z,10252
2023-05-04T13:29:55.396Z,10924
2023-05-04T13:30:53.605Z,11216
2023-05-04T13:32:27.794Z,12176
2023-05-04T13:33:43.976Z,14868
2023-05-04T13:35:00.000Z,15424
2023-05-04T13:36:16.000Z,12536
2023-05-04T13:37:32.565Z,10932
2023-05-04T13:38:48.772Z,10256
2023-05-04T13:40:04.955Z,9736
2023-05-04T13:41:03.167Z,9852
2023-05-04T13:42:37.000Z,10024
2023-05-04T13:43:53.543Z,9464
2023-05-04T13:45:09.753Z,9152
2023-05-04T13:46:25.932Z,9352
2023-05-04T13:47:41.159Z,9520
2023-05-04T13:48:57.356Z,9772
2023-05-04T13:50:13.000Z,10112
2023-05-04T13:51:11.747Z,10984
2023-05-04T13:52:44.955Z,10796
2023-05-04T13:54:00.178Z,10040
2023-05-04T13:55:16.360Z,10356
2023-05-04T13:56:32.562Z,10196
2023-05-04T13:57:48.000Z,9348
2023-05-04T13:58:46.961Z,9112
2023-05-04T14:00:21.000Z,8968
2023-05-04T14:01:37.000Z,9164
2023-05-04T14:02:53.000Z,8908
2023-05-04T14:04:09.729Z,8964
2023-05-04T14:05:25.000Z,9280
2023-05-04T14:06:42.129Z,9176
2023-05-04T14:07:58.000Z,9628
2023-05-04T14:09:14.522Z,9036
2023-05-04T14:10:30.000Z,9292
2023-05-04T14:11:29.037Z,8856
2023-05-04T14:13:03.000Z,8924
2023-05-04T14:14:19.000Z,8912
2023-05-04T14:15:35.000Z,8856
2023-05-04T14:16:51.803Z,8872
2023-05-04T14:18:08.000Z,8852
2023-05-04T14:19:24.000Z,9004
2023-05-04T14:20:40.000Z,8748
2023-05-04T14:21:38.598Z,8976
2023-05-04T14:23:12.791Z,9152
2023-05-04T14:24:10.015Z,9132
2023-05-04T14:25:44.210Z,8868
2023-05-04T14:27:00.405Z,9228
2023-05-04T14:28:16.595Z,9636
2023-05-04T14:29:31.808Z,10116
2023-05-04T14:30:48.007Z,10536
2023-05-04T14:32:04.200Z,10756
2023-05-04T14:33:20.381Z,10324
2023-05-04T14:34:36.595Z,10064
2023-05-04T14:35:52.000Z,10404
2023-05-04T14:36:50.985Z,10168
2023-05-04T14:38:25.162Z,10480
2023-05-04T14:39:41.000Z,10568
2023-05-04T14:40:57.562Z,10768
2023-05-04T14:42:13.752Z,10692
2023-05-04T14:43:29.000Z,10440
2023-05-04T14:44:46.000Z,10180
2023-05-04T14:46:02.000Z,10128
2023-05-04T14:47:18.543Z,10608
2023-05-04T14:48:34.742Z,10980
2023-05-04T14:49:31.956Z,10972
2023-05-04T14:51:06.000Z,10936
2023-05-04T14:52:22.000Z,11712
2023-05-04T14:53:38.528Z,11400
2023-05-04T14:54:54.730Z,12452
2023-05-04T14:56:10.000Z,12056
2023-05-04T14:57:09.127Z,12260
2023-05-04T14:58:43.000Z,12480
2023-05-04T14:59:41.517Z,12048
2023-05-04T15:01:15.714Z,11564
2023-05-04T15:02:13.908Z,12192
2023-05-04T15:03:48.000Z,12036
2023-05-04T15:05:04.000Z,11988
2023-05-04T15:06:20.000Z,12084
2023-05-04T15:07:36.671Z,11568
2023-05-04T15:08:52.874Z,11664
2023-05-04T15:10:09.000Z,11832
2023-05-04T15:11:25.000Z,13148
2023-05-04T15:12:23.472Z,12076
2023-05-04T15:13:57.000Z,11900
2023-05-04T15:15:13.846Z,12744
2023-05-04T15:16:30.055Z,13576
2023-05-04T15:17:46.000Z,13244
2023-05-04T15:19:02.432Z,13240
2023-05-04T15:20:17.654Z,13456
2023-05-04T15:21:33.000Z,13180
2023-05-04T15:22:50.000Z,13700
2023-05-04T15:24:06.236Z,11980
2023-05-04T15:25:22.433Z,11332
2023-05-04T15:26:38.000Z,10740
2023-05-04T15:27:36.830Z,10744
2023-05-04T15:29:11.000Z,9608
2023-05-04T15:30:27.000Z,9080
2023-05-04T15:31:43.413Z,9016
2023-05-04T15:32:59.607Z,8876
2023-05-04T15:34:15.796Z,8804
2023-05-04T15:35:31.984Z,8744
2023-05-04T15:36:48.000Z,8956
2023-05-04T15:37:46.391Z,8844
2023-05-04T15:39:20.697Z,8984
2023-05-04T15:40:18.903Z,9296
2023-05-04T15:41:53.000Z,9388
2023-05-04T15:43:09.294Z,9416
2023-05-04T15:44:25.490Z,9268
2023-05-04T15:45:41.665Z,9788
2023-05-04T15:46:57.872Z,9780
2023-05-04T15:48:14.000Z,9660
2023-05-04T15:49:30.267Z,9616
2023-05-04T15:50:28.466Z,9596
2023-05-04T15:52:02.000Z,10500
2023-05-04T15:53:18.841Z,10088
2023-05-04T15:54:35.000Z,9828
2023-05-04T15:55:51.000Z,9172
2023-05-04T15:57:07.443Z,9156
2023-05-04T15:58:23.630Z,8516
2023-05-04T15:59:39.833Z,8320
2023-05-04T16:00:56.024Z,8404
2023-05-04T16:02:12.213Z,8692
2023-05-04T16:03:54.000Z,9136
2023-05-04T16:04:44.000Z,9252
2023-05-04T16:05:42.811Z,9528
2023-05-04T16:07:16.000Z,9240
2023-05-04T16:08:32.218Z,8756
2023-05-04T16:09:48.399Z,8512
2023-05-04T16:11:04.590Z,8672
2023-05-04T16:12:20.000Z,8952
2023-05-04T16:13:36.989Z,9492
2023-05-04T16:14:53.000Z,9792
2023-05-04T16:15:51.390Z,9464
2023-05-04T16:17:25.580Z,9904
2023-05-04T16:18:23.781Z,9404
2023-05-04T16:19:57.000Z,9060
2023-05-04T16:21:14.000Z,8488
2023-05-04T16:22:30.000Z,8860
2023-05-04T16:23:46.556Z,9348
2023-05-04T16:25:02.877Z,9400
2023-05-04T16:26:19.066Z,8716
2023-05-04T16:27:35.266Z,8900
2023-05-04T16:28:51.457Z,8900
2023-05-04T16:30:07.667Z,8964
2023-05-04T16:31:05.862Z,9196
2023-05-04T16:32:40.046Z,8408
2023-05-04T16:33:56.252Z,7676
2023-05-04T16:35:12.426Z,6944
2023-05-04T16:36:28.624Z,6528
2023-05-04T16:37:44.000Z,6212
2023-05-04T16:39:01.020Z,6008
2023-05-04T16:40:17.223Z,5740
2023-05-04T16:41:32.439Z,5740
2023-05-04T16:42:48.629Z,5952
2023-05-04T16:44:04.832Z,6380
2023-05-04T16:45:21.023Z,6856
2023-05-04T16:46:37.000Z,8136
2023-05-04T16:47:53.392Z,9996
2023-05-04T16:49:09.605Z,11264
2023-05-04T16:50:25.000Z,9632
2023-05-04T16:52:08.000Z,9744
2023-05-04T16:52:58.183Z,10100
2023-05-04T16:54:14.000Z,10532
2023-05-04T16:55:30.564Z,11404
2023-05-04T16:56:28.762Z,14180
2023-05-04T16:58:02.000Z,16896
2023-05-04T16:59:19.000Z,16768
2023-05-04T17:00:35.339Z,16832
2023-05-04T17:01:33.532Z,16256
2023-05-04T17:03:06.722Z,13716
2023-05-04T17:04:22.920Z,11244
2023-05-04T17:05:39.000Z,9740
2023-05-04T17:06:55.296Z,7896
2023-05-04T17:08:11.000Z,6564
2023-05-04T17:09:54.000Z,6080
2023-05-04T17:10:43.897Z,5260
2023-05-04T17:12:00.000Z,4048
2023-05-04T17:13:16.264Z,3496
2023-05-04T17:14:14.475Z,3052
2023-05-04T17:15:48.000Z,2780